createdAt,value
2018-06-13T00:00:43.673Z,18.44
2018-06-13T00:03:14.726Z,18.41
2018-06-13T00:05:45.883Z,18.43
2018-06-13T00:08:17.094Z,18.48
2018-06-13T00:10:48.138Z,18.63
2018-06-13T00:13:19.268Z,18.75
2018-06-13T00:15:50.222Z,18.75
2018-06-13T00:18:21.136Z,18.70
2018-06-13T00:20:52.667Z,18.80
2018-06-13T00:23:23.456Z,18.77
2018-06-13T00:25:54.624Z,18.65
2018-06-13T00:28:25.590Z,18.55
2018-06-13T00:30:56.674Z,18.57
2018-06-13T00:33:27.831Z,18.44
2018-06-13T00:35:58.971Z,18.41
2018-06-13T00:38:29.981Z,18.39
2018-06-13T00:41:01.623Z,18.53
2018-06-13T00:43:32.434Z,18.56
2018-06-13T00:46:03.438Z,18.57
2018-06-13T00:48:34.482Z,18.55
2018-06-13T00:51:05.570Z,18.64
2018-06-13T00:53:36.683Z,18.52
2018-06-13T00:56:24.743Z,18.34
2018-06-13T00:58:55.874Z,18.40
2018-06-13T01:01:26.850Z,18.61
2018-06-13T01:03:57.943Z,18.75
2018-06-13T01:06:29.182Z,18.78
2018-06-13T01:09:00.322Z,18.65
2018-06-13T01:11:31.459Z,18.48
2018-06-13T01:14:02.519Z,18.53
2018-06-13T01:16:33.496Z,18.45
2018-06-13T01:19:05.594Z,18.43
2018-06-13T01:21:36.380Z,18.48
2018-06-13T01:24:07.349Z,18.52
2018-06-13T01:26:38.228Z,18.51
2018-06-13T01:29:09.328Z,18.58
2018-06-13T01:31:40.411Z,18.45
2018-06-13T01:34:10.927Z,18.40
2018-06-13T01:36:41.769Z,18.28
2018-06-13T01:39:12.821Z,18.24
2018-06-13T01:41:43.852Z,18.27
2018-06-13T01:44:14.830Z,18.27
2018-06-13T01:46:45.926Z,18.35
2018-06-13T01:49:17.072Z,18.37
2018-06-13T01:51:47.621Z,18.21
2018-06-13T01:54:18.593Z,18.25
2018-06-13T01:56:49.490Z,18.33
2018-06-13T01:59:20.527Z,18.28
2018-06-13T02:01:51.768Z,18.28
2018-06-13T02:04:22.942Z,18.26
2018-06-13T02:06:54.050Z,18.14
2018-06-13T02:09:25.328Z,18.05
2018-06-13T02:11:56.690Z,17.97
2018-06-13T02:14:27.860Z,17.93
2018-06-13T02:16:59.240Z,17.85
2018-06-13T02:19:30.309Z,17.77
2018-06-13T02:22:01.366Z,17.81
2018-06-13T02:24:32.328Z,17.78
2018-06-13T02:27:03.419Z,17.81
2018-06-13T02:29:34.427Z,17.70
2018-06-13T02:32:05.490Z,17.71
2018-06-13T02:34:36.545Z,17.75
2018-06-13T02:37:07.656Z,17.69
2018-06-13T02:39:38.691Z,17.70
2018-06-13T02:42:09.681Z,17.75
2018-06-13T02:44:40.972Z,17.72
2018-06-13T02:47:11.929Z,17.64
2018-06-13T02:49:42.992Z,17.68
2018-06-13T02:52:14.120Z,17.61
2018-06-13T02:54:46.317Z,17.70
2018-06-13T02:57:16.888Z,17.77
2018-06-13T02:59:47.749Z,17.58
2018-06-13T03:02:25.377Z,17.51
2018-06-13T03:04:57.274Z,17.49
2018-06-13T03:07:28.255Z,17.49
2018-06-13T03:10:30.165Z,17.40
2018-06-13T03:13:01.195Z,17.42
2018-06-13T03:15:32.365Z,17.46
2018-06-13T03:18:04.226Z,17.64
2018-06-13T03:20:35.427Z,17.62
2018-06-13T03:23:06.388Z,17.63
2018-06-13T03:25:37.445Z,17.57
2018-06-13T03:28:08.565Z,17.55
2018-06-13T03:30:39.676Z,17.68
2018-06-13T03:33:10.807Z,17.62
2018-06-13T03:35:42.007Z,17.66
2018-06-13T03:38:13.061Z,17.65
2018-06-13T03:40:44.410Z,17.66
2018-06-13T03:43:15.534Z,17.58
2018-06-13T03:45:47.667Z,17.60
2018-06-13T03:48:18.717Z,17.63
2018-06-13T03:50:49.291Z,17.68
2018-06-13T03:53:20.435Z,17.58
2018-06-13T03:55:52.458Z,17.58
2018-06-13T03:58:23.840Z,17.56
2018-06-13T04:00:54.974Z,17.39
2018-06-13T04:03:26.011Z,17.43
2018-06-13T04:05:57.034Z,17.35
2018-06-13T04:08:28.105Z,17.53
2018-06-13T04:10:59.078Z,17.53
2018-06-13T04:13:30.147Z,17.53
2018-06-13T04:16:01.805Z,17.50
2018-06-13T04:18:32.900Z,17.62
2018-06-13T04:21:04.203Z,17.52
2018-06-13T04:23:35.142Z,17.57
2018-06-13T04:26:07.605Z,17.57
2018-06-13T04:28:38.804Z,17.56
2018-06-13T04:31:10.027Z,17.44
2018-06-13T04:33:41.116Z,17.47
2018-06-13T04:36:12.214Z,17.44
2018-06-13T04:38:43.350Z,17.47
2018-06-13T04:41:14.318Z,17.46
2018-06-13T04:43:45.961Z,17.49
2018-06-13T04:46:18.048Z,17.54
2018-06-13T04:48:49.287Z,17.76
2018-06-13T04:51:20.439Z,17.87
2018-06-13T04:53:51.420Z,17.87
2018-06-13T04:56:22.486Z,17.82
2018-06-13T04:58:53.545Z,17.72
2018-06-13T05:01:25.800Z,17.80
2018-06-13T05:03:57.854Z,17.69
2018-06-13T05:06:30.069Z,17.54
2018-06-13T05:09:01.125Z,17.53
2018-06-13T05:11:32.246Z,17.65
2018-06-13T05:14:03.515Z,17.84
2018-06-13T05:16:34.384Z,17.80
2018-06-13T05:19:06.427Z,17.79
2018-06-13T05:21:37.463Z,17.65
2018-06-13T05:24:08.508Z,17.69
2018-06-13T05:26:39.481Z,17.64
2018-06-13T05:29:10.514Z,17.60
2018-06-13T05:31:41.326Z,17.62
2018-06-13T05:34:12.280Z,17.76
2018-06-13T05:36:44.242Z,17.71
2018-06-13T05:39:15.303Z,17.78
2018-06-13T05:41:46.443Z,17.82
2018-06-13T05:44:17.545Z,17.74
2018-06-13T05:46:48.622Z,17.83
2018-06-13T05:49:20.329Z,17.75
2018-06-13T05:51:51.361Z,17.91
2018-06-13T05:54:22.403Z,17.85
2018-06-13T05:56:53.637Z,17.89
2018-06-13T05:59:25.238Z,17.54
2018-06-13T06:01:57.232Z,17.56
2018-06-13T06:04:27.756Z,17.52
2018-06-13T06:06:58.658Z,17.48
2018-06-13T06:12:09.302Z,17.61
2018-06-13T06:14:40.443Z,17.57
2018-06-13T06:17:11.360Z,17.57
2018-06-13T06:19:42.014Z,17.53
2018-06-13T06:22:12.797Z,17.58
2018-06-13T06:24:43.697Z,17.58
2018-06-13T06:27:14.862Z,17.62
2018-06-13T06:29:45.796Z,17.81
2018-06-13T06:32:16.801Z,17.94
2018-06-13T06:34:47.836Z,17.96
2018-06-13T06:37:18.644Z,18.09
2018-06-13T06:39:49.628Z,18.26
2018-06-13T06:42:20.771Z,18.26
2018-06-13T06:44:51.896Z,18.54
2018-06-13T06:47:22.930Z,18.66
2018-06-13T06:49:54.206Z,18.65
2018-06-13T06:52:26.685Z,18.49
2018-06-13T06:54:57.782Z,18.37
2018-06-13T06:57:28.912Z,18.23
2018-06-13T06:59:59.975Z,18.08
2018-06-13T07:02:30.797Z,17.91
2018-06-13T07:05:01.755Z,17.84
2018-06-13T07:07:33.265Z,17.80
2018-06-13T07:10:04.305Z,17.77
2018-06-13T07:12:35.639Z,17.70
2018-06-13T07:15:06.943Z,17.58
2018-06-13T07:17:38.148Z,17.50
2018-06-13T07:20:09.102Z,17.61
2018-06-13T07:25:18.924Z,17.79
2018-06-13T07:27:49.852Z,17.58
2018-06-13T07:30:21.139Z,17.59
2018-06-13T07:32:52.129Z,17.66
2018-06-13T07:35:23.316Z,17.82
2018-06-13T07:37:54.522Z,17.93
2018-06-13T07:40:26.291Z,17.91
2018-06-13T07:42:57.009Z,18.00
2018-06-13T07:45:27.627Z,17.94
2018-06-13T07:47:58.609Z,18.02
2018-06-13T07:50:29.602Z,18.09
2018-06-13T07:53:01.214Z,18.07
2018-06-13T07:55:32.453Z,18.10
2018-06-13T07:58:03.524Z,18.16
2018-06-13T08:00:34.667Z,18.10
2018-06-13T08:03:06.095Z,18.30
2018-06-13T08:05:37.155Z,18.56
2018-06-13T08:08:08.268Z,18.57
2018-06-13T08:10:39.107Z,18.77
2018-06-13T08:13:10.081Z,19.11
2018-06-13T08:15:41.700Z,19.44
2018-06-13T08:18:13.545Z,19.56
2018-06-13T08:20:44.513Z,19.70
2018-06-13T08:23:15.799Z,19.83
2018-06-13T08:25:46.794Z,19.92
2018-06-13T08:28:17.616Z,20.10
2018-06-13T08:30:48.075Z,20.21
2018-06-13T08:33:19.926Z,20.23
2018-06-13T08:35:51.081Z,20.00
2018-06-13T08:38:22.133Z,20.24
2018-06-13T08:40:52.991Z,20.25
2018-06-13T08:43:23.897Z,20.09
2018-06-13T08:45:54.830Z,19.71
2018-06-13T08:48:26.556Z,19.41
2018-06-13T08:50:57.522Z,19.41
2018-06-13T08:53:31.501Z,19.36
2018-06-13T08:56:02.824Z,19.46
2018-06-13T08:58:35.603Z,19.56
2018-06-13T09:01:06.476Z,19.72
2018-06-13T09:03:37.128Z,19.65
2018-06-13T09:06:08.125Z,19.68
2018-06-13T09:08:39.528Z,19.63
2018-06-13T09:11:10.907Z,19.82
2018-06-13T09:13:41.774Z,20.10
2018-06-13T09:16:12.770Z,20.08
2018-06-13T09:18:43.802Z,20.08
2018-06-13T09:21:15.044Z,20.13
2018-06-13T09:23:46.286Z,19.87
2018-06-13T09:26:17.241Z,19.58
2018-06-13T09:28:49.424Z,19.69
2018-06-13T09:31:20.617Z,19.76
2018-06-13T09:33:51.477Z,19.90
2018-06-13T09:36:21.965Z,20.02
2018-06-13T09:38:53.022Z,19.96
2018-06-13T09:41:24.072Z,20.21
2018-06-13T09:43:55.447Z,20.24
2018-06-13T09:46:27.491Z,20.29
2018-06-13T09:48:58.103Z,20.12
2018-06-13T09:51:28.983Z,20.14
2018-06-13T09:54:00.126Z,19.99
2018-06-13T09:56:31.961Z,20.09
2018-06-13T09:59:07.798Z,19.92
2018-06-13T10:01:43.394Z,19.81
2018-06-13T10:04:14.538Z,19.41
2018-06-13T10:06:45.651Z,19.29
2018-06-13T10:09:16.433Z,19.31
2018-06-13T10:11:47.271Z,19.29
2018-06-13T10:14:18.001Z,19.11
2018-06-13T10:16:49.817Z,19.20
2018-06-13T10:19:20.620Z,19.09
2018-06-13T10:21:52.564Z,18.96
2018-06-13T10:24:24.713Z,19.12
2018-06-13T10:26:56.954Z,19.22
2018-06-13T10:29:28.006Z,19.31
2018-06-13T10:31:58.973Z,19.32
2018-06-13T10:34:29.699Z,19.30
2018-06-13T10:37:00.902Z,19.49
2018-06-13T10:39:31.749Z,19.40
2018-06-13T10:42:02.782Z,19.35
2018-06-13T10:44:33.706Z,19.32
2018-06-13T10:47:05.795Z,19.06
2018-06-13T10:49:36.177Z,19.00
2018-06-13T10:52:07.289Z,19.10
2018-06-13T10:54:38.444Z,19.42
2018-06-13T10:57:09.506Z,19.67
2018-06-13T10:59:40.249Z,19.80
2018-06-13T11:02:11.442Z,19.86
2018-06-13T11:04:42.558Z,19.74
2018-06-13T11:07:13.799Z,19.97
2018-06-13T11:09:44.739Z,20.03
2018-06-13T11:12:15.796Z,20.24
2018-06-13T11:14:46.947Z,20.33
2018-06-13T11:17:19.030Z,20.16
2018-06-13T11:19:50.031Z,20.00
2018-06-13T11:22:21.316Z,19.77
2018-06-13T11:24:52.418Z,19.65
2018-06-13T11:27:23.661Z,19.70
2018-06-13T11:29:55.171Z,20.05
2018-06-13T11:32:27.023Z,20.10
2018-06-13T11:34:57.858Z,20.29
2018-06-13T11:37:28.888Z,20.37
2018-06-13T11:40:00.210Z,20.41
2018-06-13T11:42:31.384Z,20.49
2018-06-13T11:45:02.349Z,20.28
2018-06-13T11:47:33.650Z,20.42
2018-06-13T11:50:04.453Z,20.60
2018-06-13T11:52:35.435Z,20.81
2018-06-13T11:55:06.974Z,20.69
2018-06-13T11:57:37.916Z,20.53
2018-06-13T12:00:08.526Z,20.24
2018-06-13T12:02:39.362Z,19.96
2018-06-13T12:05:10.461Z,19.84
2018-06-13T12:07:41.515Z,19.68
2018-06-13T12:10:12.404Z,19.62
2018-06-13T12:12:44.390Z,19.68
2018-06-13T12:15:15.629Z,19.79
2018-06-13T12:17:46.702Z,19.63
2018-06-13T12:20:17.870Z,19.53
2018-06-13T12:22:48.923Z,19.38
2018-06-13T12:25:20.224Z,19.49
2018-06-13T12:27:51.346Z,19.80
2018-06-13T12:30:22.487Z,20.11
2018-06-13T12:32:54.851Z,20.34
2018-06-13T12:35:26.913Z,20.25
2018-06-13T12:37:57.981Z,20.04
2018-06-13T12:40:29.056Z,20.14
2018-06-13T12:43:00.277Z,20.00
2018-06-13T12:45:31.614Z,19.98
2018-06-13T12:48:02.684Z,19.90
2018-06-13T12:50:33.982Z,19.71
2018-06-13T12:53:04.540Z,19.70
2018-06-13T12:55:35.562Z,19.53
2018-06-13T12:58:07.122Z,19.66
2018-06-13T13:00:38.233Z,19.79
2018-06-13T13:03:09.214Z,19.83
2018-06-13T13:05:40.227Z,19.99
2018-06-13T13:08:11.543Z,20.28
2018-06-13T13:10:42.750Z,20.38
2018-06-13T13:13:14.824Z,20.48
2018-06-13T13:15:45.823Z,20.52
2018-06-13T13:18:16.503Z,20.63
2018-06-13T13:20:47.739Z,20.59
2018-06-13T13:23:19.826Z,20.45
2018-06-13T13:25:51.084Z,20.64
2018-06-13T13:28:22.541Z,20.35
2018-06-13T13:30:53.747Z,20.33
2018-06-13T13:33:24.986Z,20.40
2018-06-13T13:35:56.178Z,20.39
2018-06-13T13:38:27.273Z,20.49
2018-06-13T13:40:58.411Z,20.46
2018-06-13T13:43:29.676Z,20.45
2018-06-13T13:46:01.655Z,20.33
2018-06-13T13:48:32.940Z,20.33
2018-06-13T13:51:04.053Z,20.50
2018-06-13T13:53:36.469Z,20.72
2018-06-13T13:56:07.267Z,20.72
2018-06-13T13:58:38.335Z,20.79
2018-06-13T14:01:09.452Z,20.84
2018-06-13T14:03:40.578Z,20.69
2018-06-13T14:06:11.849Z,20.21
2018-06-13T14:08:42.958Z,19.50
2018-06-13T14:11:14.093Z,19.30
2018-06-13T14:13:45.242Z,19.19
2018-06-13T14:16:16.217Z,19.17
2018-06-13T14:18:47.302Z,19.05
2018-06-13T14:21:17.826Z,18.91
2018-06-13T14:23:49.494Z,18.91
2018-06-13T14:26:22.317Z,18.92
2018-06-13T14:28:54.441Z,19.02
2018-06-13T14:31:26.372Z,19.10
2018-06-13T14:33:57.314Z,19.23
2018-06-13T14:36:28.242Z,19.39
2018-06-13T14:38:59.454Z,19.45
2018-06-13T14:41:30.435Z,19.44
2018-06-13T14:44:01.411Z,19.60
2018-06-13T14:46:32.589Z,19.45
2018-06-13T14:49:04.128Z,19.59
2018-06-13T14:51:35.477Z,19.63
2018-06-13T14:54:07.057Z,19.82
2018-06-13T14:56:38.536Z,19.67
2018-06-13T14:59:09.872Z,19.69
2018-06-13T15:01:41.644Z,19.70
2018-06-13T15:04:13.048Z,19.79
2018-06-13T15:06:44.117Z,19.53
2018-06-13T15:09:15.416Z,19.55
2018-06-13T15:11:46.594Z,19.44
2018-06-13T15:14:17.665Z,19.50
2018-06-13T15:16:48.839Z,19.38
2018-06-13T15:19:20.335Z,19.14
2018-06-13T15:21:52.888Z,19.13
2018-06-13T15:24:24.332Z,19.15
2018-06-13T15:26:55.152Z,19.27
2018-06-13T15:29:27.179Z,19.12
2018-06-13T15:31:58.265Z,19.12
2018-06-13T15:34:29.465Z,19.20
2018-06-13T15:37:01.454Z,19.24
2018-06-13T15:39:32.588Z,19.24
2018-06-13T15:42:03.736Z,19.33
2018-06-13T15:44:35.348Z,19.40
2018-06-13T15:47:06.333Z,19.35
2018-06-13T15:49:37.612Z,19.47
2018-06-13T15:52:09.020Z,19.44
2018-06-13T15:54:40.260Z,19.45
2018-06-13T15:57:12.498Z,19.39
2018-06-13T15:59:43.745Z,19.40
2018-06-13T16:02:14.689Z,19.20
2018-06-13T16:04:46.322Z,19.06
2018-06-13T16:07:17.471Z,19.08
2018-06-13T16:09:48.535Z,19.18
2018-06-13T16:12:19.867Z,19.16
2018-06-13T16:14:51.084Z,19.19
2018-06-13T16:17:22.201Z,19.22
2018-06-13T16:19:53.026Z,19.32
2018-06-13T16:22:23.492Z,19.42
2018-06-13T16:24:55.142Z,19.46
2018-06-13T16:27:26.905Z,19.50
2018-06-13T16:29:58.218Z,19.50
2018-06-13T16:32:29.133Z,19.43
2018-06-13T16:35:00.333Z,19.34
2018-06-13T16:37:31.036Z,19.17
2018-06-13T16:40:02.395Z,19.25
2018-06-13T16:42:34.040Z,19.20
2018-06-13T16:45:05.712Z,19.20
2018-06-13T16:47:37.462Z,19.35
2018-06-13T16:50:24.953Z,19.30
2018-06-13T16:53:10.554Z,19.14
2018-06-13T16:55:41.785Z,19.25
2018-06-13T16:58:13.834Z,19.23
2018-06-13T17:00:45.199Z,19.14
2018-06-13T17:03:16.566Z,19.13
2018-06-13T17:05:47.814Z,19.09
2018-06-13T17:08:18.963Z,18.96
2018-06-13T17:10:50.021Z,18.99
2018-06-13T17:13:21.266Z,18.92
2018-06-13T17:15:52.353Z,18.91
2018-06-13T17:18:23.510Z,18.85
2018-06-13T17:20:54.796Z,18.83
2018-06-13T17:23:26.025Z,18.97
2018-06-13T17:25:57.397Z,18.94
2018-06-13T17:28:28.042Z,19.03
2018-06-13T17:30:58.997Z,19.27
2018-06-13T17:33:30.336Z,19.25
2018-06-13T17:36:01.688Z,19.16
2018-06-13T17:38:32.936Z,19.05
2018-06-13T17:41:04.390Z,19.07
2018-06-13T17:43:35.555Z,19.19
2018-06-13T17:46:06.729Z,19.00
2018-06-13T17:48:37.887Z,18.91
2018-06-13T17:51:09.231Z,18.89
2018-06-13T17:53:40.236Z,18.92
2018-06-13T17:56:11.312Z,18.93
2018-06-13T17:58:42.521Z,18.80
2018-06-13T18:01:13.663Z,18.76
2018-06-13T18:03:44.803Z,18.64
2018-06-13T18:06:32.587Z,18.51
2018-06-13T18:09:04.287Z,18.49
2018-06-13T18:11:35.548Z,18.54
2018-06-13T18:14:06.656Z,18.53
2018-06-13T18:16:38.599Z,18.44
2018-06-13T18:19:09.378Z,18.40
2018-06-13T18:21:41.249Z,18.44
2018-06-13T18:24:12.102Z,18.33
2018-06-13T18:26:45.019Z,18.20
2018-06-13T18:29:15.972Z,18.17
2018-06-13T18:31:47.036Z,18.17
2018-06-13T18:34:18.492Z,18.24
2018-06-13T18:36:49.374Z,18.30
2018-06-13T18:39:20.306Z,18.31
2018-06-13T18:41:51.375Z,18.29
2018-06-13T18:44:22.754Z,18.22
2018-06-13T18:46:54.724Z,18.16
2018-06-13T18:49:25.608Z,18.12
2018-06-13T18:51:56.440Z,18.04
2018-06-13T18:54:27.567Z,18.02
2018-06-13T18:56:58.681Z,18.06
2018-06-13T18:59:29.712Z,18.09
2018-06-13T19:02:00.978Z,18.02
2018-06-13T19:04:32.095Z,18.02
2018-06-13T19:07:02.941Z,17.99
2018-06-13T19:09:34.155Z,17.96
2018-06-13T19:12:04.924Z,17.94
2018-06-13T19:14:36.107Z,17.84
2018-06-13T19:17:06.971Z,17.85
2018-06-13T19:19:39.607Z,17.87
2018-06-13T19:22:10.775Z,17.91
2018-06-13T19:24:41.989Z,17.92
2018-06-13T19:27:13.121Z,17.97
2018-06-13T19:29:45.313Z,17.96
2018-06-13T19:32:16.248Z,17.96
2018-06-13T19:34:47.146Z,17.98
2018-06-13T19:37:17.929Z,17.96
2018-06-13T19:39:48.873Z,17.90
2018-06-13T19:42:20.113Z,17.91
2018-06-13T19:44:51.088Z,17.95
2018-06-13T19:47:26.987Z,17.93
2018-06-13T19:49:58.081Z,17.93
2018-06-13T19:52:33.855Z,17.97
2018-06-13T19:55:09.739Z,18.01
2018-06-13T19:57:40.602Z,18.01
2018-06-13T20:00:11.785Z,18.08
2018-06-13T20:02:47.703Z,18.10
2018-06-13T20:05:24.779Z,18.05
2018-06-13T20:07:55.884Z,18.03
2018-06-13T20:10:27.846Z,17.95
2018-06-13T20:13:05.830Z,17.91
2018-06-13T20:15:41.609Z,17.88
2018-06-13T20:18:17.303Z,17.87
2018-06-13T20:20:48.168Z,17.91
2018-06-13T20:23:18.959Z,17.88
2018-06-13T20:25:54.996Z,17.87
2018-06-13T20:28:31.027Z,17.82
2018-06-13T20:31:07.204Z,17.80
2018-06-13T20:33:38.011Z,17.83
2018-06-13T20:36:08.876Z,17.81
2018-06-13T20:38:39.757Z,17.80
2018-06-13T20:41:10.568Z,17.73
2018-06-13T20:43:41.650Z,17.71
2018-06-13T20:46:12.442Z,17.74
2018-06-13T20:48:43.457Z,17.73
2018-06-13T20:51:14.539Z,17.73
2018-06-13T20:53:45.659Z,17.74
2018-06-13T20:56:16.861Z,17.64
2018-06-13T20:58:48.363Z,17.64
2018-06-13T21:01:19.372Z,17.75
2018-06-13T21:03:50.626Z,17.70
2018-06-13T21:06:21.687Z,17.79
2018-06-13T21:08:53.450Z,17.75
2018-06-13T21:11:24.287Z,17.72
2018-06-13T21:13:55.714Z,17.76
2018-06-13T21:16:27.750Z,17.69
2018-06-13T21:18:58.849Z,17.66
2018-06-13T21:21:30.027Z,17.65
2018-06-13T21:24:01.227Z,17.66
2018-06-13T21:26:32.368Z,17.69
2018-06-13T21:29:03.793Z,17.68
2018-06-13T21:31:34.669Z,17.68
2018-06-13T21:34:05.953Z,17.63
2018-06-13T21:36:36.805Z,17.60
2018-06-13T21:39:11.105Z,17.62
2018-06-13T21:41:42.022Z,17.61
2018-06-13T21:44:13.007Z,17.62
2018-06-13T21:46:44.019Z,17.58
2018-06-13T21:49:14.810Z,17.62
2018-06-13T21:51:45.642Z,17.63
2018-06-13T21:54:17.413Z,17.61
2018-06-13T21:56:48.238Z,17.63
2018-06-13T21:59:19.154Z,17.59
2018-06-13T22:01:50.717Z,17.58
2018-06-13T22:04:21.310Z,17.54
2018-06-13T22:06:52.251Z,17.54
2018-06-13T22:09:23.063Z,17.49
2018-06-13T22:11:54.338Z,17.39
2018-06-13T22:14:26.555Z,17.31
2018-06-13T22:16:58.054Z,17.28
2018-06-13T22:19:28.891Z,17.28
2018-06-13T22:22:04.154Z,17.24
2018-06-13T22:24:34.911Z,17.16
2018-06-13T22:27:06.039Z,17.15
2018-06-13T22:29:37.118Z,17.10
2018-06-13T22:32:08.250Z,17.08
2018-06-13T22:34:39.236Z,17.08
2018-06-13T22:37:10.431Z,17.06
2018-06-13T22:39:41.343Z,17.10
2018-06-13T22:42:12.122Z,17.13
2018-06-13T22:44:43.060Z,17.18
2018-06-13T22:47:13.964Z,17.20
2018-06-13T22:49:44.720Z,17.19
2018-06-13T22:52:15.687Z,17.23
2018-06-13T22:54:46.665Z,17.35
2018-06-13T22:57:17.701Z,17.37
2018-06-13T22:59:48.678Z,17.41
2018-06-13T23:02:19.713Z,17.40
2018-06-13T23:04:51.567Z,17.40
2018-06-13T23:07:22.636Z,17.43
2018-06-13T23:09:53.636Z,17.45
2018-06-13T23:12:24.514Z,17.43
2018-06-13T23:14:55.351Z,17.32
2018-06-13T23:17:26.475Z,17.27
2018-06-13T23:19:57.223Z,17.36
2018-06-13T23:22:29.809Z,17.40
2018-06-13T23:25:00.842Z,17.49
2018-06-13T23:27:31.980Z,17.41
2018-06-13T23:30:03.133Z,17.52
2018-06-13T23:32:35.263Z,17.64
2018-06-13T23:35:06.918Z,17.58
2018-06-13T23:37:37.585Z,17.51
2018-06-13T23:40:08.660Z,17.58
2018-06-13T23:42:41.799Z,17.75
2018-06-13T23:45:12.901Z,17.84
2018-06-13T23:47:43.975Z,17.84
2018-06-13T23:50:15.184Z,17.72
2018-06-13T23:52:46.249Z,17.58
2018-06-13T23:55:17.295Z,17.39
2018-06-13T23:57:50.990Z,17.18
